Time;durP1;ratioP1;P1;durP2;ratioP2;P2;SDS_P1;SDS_P2;PMS_P1;PMS_P2;Temp;Humidity;BMP_temperature;BMP_pressure;BME280_temperature;BME280_humidity;BME280_pressure;Samples;Min_cycle;Max_cycle;Signal;HPM_P1;HPM_P2
2022/07/29 00:01:34;;;;;;;8.07;4.63;;;18.80;57.30;;;;;;5061158;28;46242;-67
2022/07/29 00:04:00;;;;;;;6.10;3.83;;;18.80;57.20;;;;;;5060360;28;46397;-66
2022/07/29 00:06:26;;;;;;;11.20;4.67;;;18.80;57.10;;;;;;5060925;28;47087;-66
2022/07/29 00:08:51;;;;;;;13.37;4.40;;;18.80;56.90;;;;;;5060598;28;46472;-67
2022/07/29 00:11:17;;;;;;;13.70;3.83;;;18.80;56.90;;;;;;5061741;28;46572;-67
2022/07/29 00:13:42;;;;;;;6.57;4.30;;;18.80;56.90;;;;;;5060863;28;45848;-67
2022/07/29 00:16:08;;;;;;;8.30;4.67;;;18.80;57.00;;;;;;5060695;28;47074;-66
2022/07/29 00:18:33;;;;;;;9.17;4.63;;;18.80;57.20;;;;;;5059633;28;46374;-67
2022/07/29 00:20:59;;;;;;;6.53;4.23;;;18.70;57.60;;;;;;5059738;28;46620;-66
2022/07/29 00:23:25;;;;;;;28.10;5.10;;;18.70;58.20;;;;;;5060725;28;46692;-66
2022/07/29 00:25:50;;;;;;;8.90;4.67;;;18.70;58.90;;;;;;5061163;28;47254;-67
2022/07/29 00:28:16;;;;;;;6.53;4.40;;;18.60;59.50;;;;;;5060882;28;46322;-66
2022/07/29 00:30:43;;;;;;;10.13;5.00;;;18.60;59.60;;;;;;5061658;28;46392;-66
2022/07/29 00:33:09;;;;;;;6.53;4.30;;;18.60;59.60;;;;;;5059112;28;46624;-66
2022/07/29 00:35:44;;;;;;;9.97;5.00;;;18.60;59.60;;;;;;5058080;28;47044;-67
2022/07/29 00:38:14;;;;;;;13.63;4.87;;;18.50;59.50;;;;;;5059822;28;46482;-67
2022/07/29 00:40:40;;;;;;;8.97;4.07;;;18.50;59.50;;;;;;5060541;28;45774;-66
2022/07/29 00:43:06;;;;;;;6.77;4.37;;;18.50;59.50;;;;;;5058748;28;46479;-66
2022/07/29 00:45:31;;;;;;;10.50;4.30;;;18.50;59.50;;;;;;5061290;28;46331;-66
2022/07/29 00:47:57;;;;;;;9.07;4.50;;;18.50;59.50;;;;;;5057577;28;46459;-67
2022/07/29 00:50:23;;;;;;;10.60;4.00;;;18.60;59.60;;;;;;5060858;28;46454;-67
2022/07/29 00:52:51;;;;;;;9.67;4.47;;;18.60;59.60;;;;;;5061291;28;46469;-67
2022/07/29 00:55:17;;;;;;;14.70;4.77;;;18.50;59.50;;;;;;5061102;28;47251;-67
2022/07/29 00:57:44;;;;;;;10.27;4.37;;;18.40;59.70;;;;;;5060763;28;45943;-67
2022/07/29 01:00:14;;;;;;;12.13;5.20;;;18.40;60.00;;;;;;5068384;28;46413;-69
2022/07/29 01:02:40;;;;;;;9.53;4.60;;;18.40;60.00;;;;;;5060510;28;47242;-67
2022/07/29 01:05:06;;;;;;;6.40;3.90;;;18.40;60.30;;;;;;5056216;28;47324;-67
2022/07/29 01:07:34;;;;;;;8.50;4.97;;;18.40;60.20;;;;;;5060226;28;46591;-67
2022/07/29 01:10:02;;;;;;;9.77;4.60;;;18.40;60.10;;;;;;5057919;28;45872;-67
2022/07/29 01:12:33;;;;;;;18.67;4.70;;;18.30;60.50;;;;;;5060120;28;46341;-67
2022/07/29 01:15:00;;;;;;;8.60;4.80;;;18.20;60.90;;;;;;5060562;28;46452;-67
2022/07/29 01:17:31;;;;;;;10.93;4.53;;;18.20;61.10;;;;;;5059698;28;46479;-67
2022/07/29 01:20:36;;;;;;;15.17;5.20;;;18.10;61.00;;;;;;5060328;28;46693;-67
2022/07/29 01:23:31;;;;;;;11.30;4.90;;;18.20;61.30;;;;;;5059106;28;46445;-67
2022/07/29 01:26:47;;;;;;;8.23;4.60;;;18.10;61.00;;;;;;5051219;28;46422;-67
2022/07/29 01:29:31;;;;;;;8.13;4.40;;;18.10;61.10;;;;;;5021737;28;46574;-68
2022/07/29 01:32:15;;;;;;;9.73;4.63;;;18.00;60.90;;;;;;5060402;28;46663;-67
2022/07/29 01:34:51;;;;;;;19.50;5.30;;;17.90;61.10;;;;;;5060470;28;46441;-67
2022/07/29 01:37:28;;;;;;;8.13;4.53;;;17.90;61.40;;;;;;5059791;28;46366;-67
2022/07/29 01:39:57;;;;;;;8.10;4.33;;;17.80;61.50;;;;;;5059349;28;46456;-67
2022/07/29 01:42:48;;;;;;;8.00;4.00;;;17.70;62.10;;;;;;5057939;28;46453;-67
2022/07/29 01:45:23;;;;;;;9.37;4.90;;;17.60;62.60;;;;;;5059392;28;46470;-68
2022/07/29 01:48:19;;;;;;;7.03;4.63;;;17.50;62.60;;;;;;5057854;28;46743;-67
2022/07/29 01:50:49;;;;;;;13.97;4.10;;;17.50;62.70;;;;;;5058158;28;46440;-66
2022/07/29 01:53:21;;;;;;;12.30;4.47;;;17.40;62.50;;;;;;5057597;28;46401;-67
2022/07/29 01:55:49;;;;;;;4.90;3.80;;;17.40;62.60;;;;;;5056782;28;46393;-67
2022/07/29 01:58:19;;;;;;;10.23;4.10;;;17.40;62.70;;;;;;5054142;28;47427;-67
2022/07/29 02:00:46;;;;;;;9.70;4.70;;;17.30;62.60;;;;;;5057382;28;46424;-67
2022/07/29 02:03:12;;;;;;;11.87;3.90;;;17.30;62.80;;;;;;5057166;28;46433;-67
2022/07/29 02:05:41;;;;;;;11.43;4.20;;;17.30;62.90;;;;;;5059819;28;46380;-67
2022/07/29 02:08:09;;;;;;;6.87;3.23;;;17.20;63.10;;;;;;5057211;28;46886;-67
2022/07/29 02:10:36;;;;;;;8.70;3.80;;;17.20;63.20;;;;;;5057751;28;45764;-66
2022/07/29 02:13:03;;;;;;;9.20;3.40;;;17.20;63.10;;;;;;5058100;28;45894;-66
2022/07/29 02:15:32;;;;;;;7.23;3.70;;;17.20;63.10;;;;;;5058845;28;46648;-67
2022/07/29 02:18:16;;;;;;;10.50;3.53;;;17.10;63.20;;;;;;5057964;28;47112;-67
2022/07/29 02:20:46;;;;;;;8.80;3.30;;;17.10;63.40;;;;;;5058007;28;46491;-67
2022/07/29 02:23:14;;;;;;;9.00;3.70;;;17.10;63.30;;;;;;5058726;28;46314;-67
2022/07/29 02:25:42;;;;;;;7.13;3.40;;;17.10;63.30;;;;;;5059490;28;46971;-67
2022/07/29 02:28:07;;;;;;;5.97;3.47;;;17.00;63.40;;;;;;5059737;28;47045;-67
2022/07/29 02:30:36;;;;;;;7.20;3.13;;;17.00;63.50;;;;;;5062573;28;46109;-66
2022/07/29 02:33:03;;;;;;;5.00;2.97;;;17.00;63.70;;;;;;5060608;28;46441;-67
2022/07/29 02:35:29;;;;;;;10.93;4.77;;;17.00;63.80;;;;;;5060160;28;46358;-67
2022/07/29 02:40:45;;;;;;;15.03;4.43;;;17.00;64.50;;;;;;5051603;28;46560;-67
2022/07/29 02:43:11;;;;;;;7.70;3.43;;;16.80;64.40;;;;;;5062037;28;45888;-67
2022/07/29 02:45:37;;;;;;;11.53;3.60;;;16.80;64.50;;;;;;5062577;28;46460;-67
2022/07/29 02:48:09;;;;;;;12.83;4.17;;;16.80;64.40;;;;;;5060561;28;46327;-66
2022/07/29 02:50:40;;;;;;;7.63;3.43;;;16.80;64.30;;;;;;5061794;28;46297;-67
2022/07/29 02:53:14;;;;;;;8.77;3.40;;;16.70;64.30;;;;;;5060554;28;46191;-67
2022/07/29 02:55:45;;;;;;;8.93;3.70;;;16.70;64.50;;;;;;5061857;28;46404;-67
2022/07/29 02:58:31;;;;;;;5.53;3.37;;;16.70;64.50;;;;;;5061412;28;46046;-66
2022/07/29 03:00:59;;;;;;;18.80;4.70;;;16.70;64.40;;;;;;5060349;28;46400;-67
2022/07/29 03:03:31;;;;;;;7.87;4.20;;;16.70;64.40;;;;;;5059564;28;46436;-67
2022/07/29 03:05:59;;;;;;;16.53;4.80;;;16.60;64.30;;;;;;5062298;28;46391;-67
2022/07/29 03:08:27;;;;;;;12.43;4.13;;;16.60;64.30;;;;;;5061170;28;46969;-67
2022/07/29 03:10:53;;;;;;;8.53;3.50;;;16.60;64.50;;;;;;5062554;28;46507;-66
2022/07/29 03:13:19;;;;;;;10.77;4.00;;;16.60;64.50;;;;;;5061502;28;46396;-68
2022/07/29 03:15:46;;;;;;;9.13;3.50;;;16.60;64.60;;;;;;5063034;28;46455;-66
2022/07/29 03:18:13;;;;;;;11.63;3.60;;;16.50;65.00;;;;;;5061675;28;46400;-66
2022/07/29 03:20:39;;;;;;;9.13;3.57;;;16.40;65.70;;;;;;5062080;28;45858;-66
2022/07/29 03:23:04;;;;;;;12.00;4.30;;;16.30;66.10;;;;;;5061972;28;46521;-66
2022/07/29 03:25:30;;;;;;;10.93;3.90;;;16.30;66.30;;;;;;5062194;28;46473;-67
2022/07/29 03:27:56;;;;;;;11.40;3.67;;;16.30;66.20;;;;;;5062354;28;47261;-66
2022/07/29 03:30:22;;;;;;;12.90;4.57;;;16.30;66.10;;;;;;5063038;28;46437;-66
2022/07/29 03:32:49;;;;;;;26.17;4.63;;;16.40;65.80;;;;;;5059449;28;46459;-66
2022/07/29 03:35:16;;;;;;;11.30;4.13;;;16.50;65.70;;;;;;5064190;28;45929;-67
2022/07/29 03:37:42;;;;;;;10.73;4.00;;;16.50;65.40;;;;;;5067849;28;48021;-67
2022/07/29 03:40:11;;;;;;;12.30;4.40;;;16.50;65.50;;;;;;5062315;28;46767;-67
2022/07/29 03:42:40;;;;;;;11.53;3.80;;;16.40;65.70;;;;;;5061932;28;46339;-67
2022/07/29 03:45:08;;;;;;;12.03;3.70;;;16.40;66.10;;;;;;5060247;28;46392;-67
2022/07/29 03:47:37;;;;;;;21.50;3.83;;;16.40;66.20;;;;;;5061157;28;46421;-67
2022/07/29 03:50:06;;;;;;;16.30;3.67;;;16.40;65.90;;;;;;5059537;28;46425;-67
2022/07/29 03:52:33;;;;;;;11.33;3.20;;;16.50;65.60;;;;;;5061265;28;45958;-67
2022/07/29 03:54:58;;;;;;;9.20;3.80;;;16.50;65.50;;;;;;5062069;28;46664;-67
2022/07/29 03:57:27;;;;;;;9.03;3.90;;;16.50;65.70;;;;;;5059427;28;46461;-67
2022/07/29 03:59:53;;;;;;;16.93;3.40;;;16.40;66.10;;;;;;5061739;28;46438;-67
2022/07/29 04:02:19;;;;;;;8.53;4.10;;;16.30;66.40;;;;;;5058903;28;46378;-66
2022/07/29 04:04:45;;;;;;;8.43;3.80;;;16.40;66.40;;;;;;5061914;28;46442;-68
2022/07/29 04:07:13;;;;;;;13.17;3.63;;;16.50;66.10;;;;;;5059234;28;46373;-67
2022/07/29 04:09:38;;;;;;;19.60;3.20;;;16.50;65.80;;;;;;5062389;28;46347;-67
2022/07/29 04:12:04;;;;;;;17.10;2.93;;;16.60;65.70;;;;;;5062654;28;46313;-67
2022/07/29 04:14:31;;;;;;;13.70;3.10;;;16.60;65.40;;;;;;5062241;28;46320;-66
2022/07/29 04:16:57;;;;;;;12.90;3.77;;;16.60;65.40;;;;;;5060893;28;46507;-69
2022/07/29 04:19:22;;;;;;;12.93;3.60;;;16.60;65.50;;;;;;5059873;28;46383;-66
2022/07/29 04:21:48;;;;;;;14.30;3.47;;;16.60;65.80;;;;;;5061419;28;46791;-67
2022/07/29 04:24:14;;;;;;;6.80;3.33;;;16.70;65.50;;;;;;5061390;28;45982;-67
2022/07/29 04:26:39;;;;;;;15.33;3.50;;;16.80;65.20;;;;;;5060595;28;46709;-66
2022/07/29 04:29:05;;;;;;;6.70;3.70;;;16.90;64.70;;;;;;5058223;28;46399;-66
2022/07/29 04:31:30;;;;;;;9.03;3.13;;;17.00;64.70;;;;;;5061724;28;46370;-66
2022/07/29 04:33:56;;;;;;;9.93;3.30;;;17.00;64.70;;;;;;5057373;28;46321;-67
2022/07/29 04:36:21;;;;;;;12.50;3.60;;;17.10;64.60;;;;;;5057514;28;46544;-68
2022/07/29 04:38:47;;;;;;;8.40;3.17;;;17.20;65.40;;;;;;5059559;28;46478;-66
2022/07/29 04:41:13;;;;;;;5.50;3.00;;;17.30;63.90;;;;;;5058690;28;46542;-68
2022/07/29 04:43:38;;;;;;;7.47;3.10;;;17.30;63.60;;;;;;5059568;28;46322;-67
2022/07/29 04:46:06;;;;;;;7.23;3.30;;;17.40;63.50;;;;;;5057999;28;46715;-68
2022/07/29 04:48:32;;;;;;;8.37;3.80;;;17.50;63.30;;;;;;5058943;28;46432;-66
2022/07/29 04:50:58;;;;;;;9.27;3.50;;;17.60;63.30;;;;;;5060036;28;46521;-66
2022/07/29 04:53:24;;;;;;;12.77;3.47;;;17.70;63.30;;;;;;5058525;28;46356;-66
2022/07/29 04:55:50;;;;;;;7.37;3.70;;;17.80;63.00;;;;;;5058574;28;46445;-65
2022/07/29 04:58:16;;;;;;;12.17;3.20;;;17.90;62.70;;;;;;5058153;28;46428;-66
2022/07/29 05:00:41;;;;;;;8.73;2.77;;;18.30;62.50;;;;;;5059127;28;46320;-67
2022/07/29 05:03:07;;;;;;;8.60;2.20;;;19.40;62.00;;;;;;5056961;28;46356;-67
2022/07/29 05:05:33;;;;;;;5.60;2.50;;;20.40;61.10;;;;;;5059132;28;46647;-66
2022/07/29 05:07:58;;;;;;;11.30;2.67;;;21.30;58.80;;;;;;5057943;28;46518;-67
2022/07/29 05:10:24;;;;;;;8.43;2.50;;;22.20;56.70;;;;;;5059475;28;46435;-67
2022/07/29 05:12:50;;;;;;;9.60;2.70;;;23.00;53.90;;;;;;5057665;28;46685;-68
2022/07/29 05:15:17;;;;;;;9.83;2.63;;;23.70;51.10;;;;;;5059211;28;46410;-68
2022/07/29 05:17:43;;;;;;;10.57;2.60;;;24.60;48.20;;;;;;5058205;28;46479;-67
2022/07/29 05:20:09;;;;;;;8.20;2.40;;;25.40;45.50;;;;;;5059445;28;46428;-67
2022/07/29 05:22:35;;;;;;;14.63;2.73;;;25.90;42.70;;;;;;5057844;28;46350;-67
2022/07/29 05:25:02;;;;;;;5.33;2.23;;;26.30;40.90;;;;;;5057893;28;47340;-67
2022/07/29 05:27:27;;;;;;;6.47;2.63;;;26.60;39.70;;;;;;5058713;28;45817;-67
2022/07/29 05:29:53;;;;;;;5.13;2.30;;;27.10;39.00;;;;;;5057840;28;46335;-68
2022/07/29 05:32:19;;;;;;;5.43;2.20;;;27.30;37.40;;;;;;5058402;28;45921;-68
2022/07/29 05:34:44;;;;;;;8.30;3.53;;;27.70;35.90;;;;;;5058919;28;47245;-67
2022/07/29 05:37:10;;;;;;;7.73;3.43;;;28.00;34.30;;;;;;5058785;28;46536;-66
2022/07/29 05:39:36;;;;;;;9.13;3.40;;;28.20;33.40;;;;;;5059422;28;46378;-68
2022/07/29 05:42:01;;;;;;;4.50;2.50;;;28.20;32.90;;;;;;5040946;28;46461;-65
2022/07/29 05:44:27;;;;;;;8.80;3.23;;;28.40;31.70;;;;;;5055628;28;46405;-65
2022/07/29 05:46:53;;;;;;;11.93;4.20;;;29.10;29.60;;;;;;5055848;28;46780;-66
2022/07/29 05:49:18;;;;;;;9.33;3.37;;;29.60;28.40;;;;;;5058924;28;46434;-65
2022/07/29 05:51:44;;;;;;;10.53;3.60;;;29.90;27.20;;;;;;5058517;28;47175;-66
2022/07/29 05:54:10;;;;;;;11.93;3.73;;;30.00;26.30;;;;;;5059557;28;46438;-65
2022/07/29 05:56:36;;;;;;;8.67;2.53;;;30.30;25.50;;;;;;5058515;28;45853;-64
2022/07/29 05:59:03;;;;;;;4.53;2.20;;;30.60;24.60;;;;;;5060258;28;45851;-65
2022/07/29 06:01:28;;;;;;;12.63;3.97;;;30.30;24.30;;;;;;5060232;28;46417;-65
2022/07/29 06:03:54;;;;;;;15.97;4.10;;;30.40;23.90;;;;;;5064414;28;46393;-65
2022/07/29 06:06:20;;;;;;;10.23;4.50;;;30.50;23.60;;;;;;5061953;28;46699;-65
2022/07/29 06:08:45;;;;;;;7.90;2.93;;;30.80;22.90;;;;;;5062362;28;46522;-65
2022/07/29 06:11:11;;;;;;;9.70;3.20;;;30.90;22.40;;;;;;5062861;28;46977;-66
2022/07/29 06:13:36;;;;;;;6.90;2.33;;;31.10;21.60;;;;;;5061793;28;46456;-66
2022/07/29 06:16:02;;;;;;;10.93;2.97;;;31.40;21.00;;;;;;5062422;28;46589;-66
2022/07/29 06:18:28;;;;;;;7.70;2.40;;;31.40;20.20;;;;;;5067513;28;46549;-66
2022/07/29 06:20:54;;;;;;;5.30;1.97;;;31.60;19.60;;;;;;5061551;28;46753;-66
2022/07/29 06:23:20;;;;;;;4.13;1.97;;;32.00;18.60;;;;;;5063144;28;46444;-65
2022/07/29 06:25:46;;;;;;;4.50;2.53;;;31.60;18.80;;;;;;5060918;28;46436;-66
2022/07/29 06:28:12;;;;;;;6.50;2.60;;;30.30;22.10;;;;;;5062648;28;46451;-66
2022/07/29 06:30:38;;;;;;;5.50;2.37;;;29.20;24.60;;;;;;5063348;28;46063;-65
2022/07/29 06:33:05;;;;;;;10.30;2.10;;;28.20;26.60;;;;;;5061151;28;46595;-65
2022/07/29 06:35:33;;;;;;;3.77;2.00;;;27.60;27.40;;;;;;5063553;28;45897;-64
2022/07/29 06:37:59;;;;;;;5.87;2.80;;;28.40;24.20;;;;;;5061377;28;46407;-65
2022/07/29 06:43:08;;;;;;;6.20;2.40;;;29.40;20.70;;;;;;5060966;28;46424;-65
2022/07/29 06:45:34;;;;;;;7.43;2.70;;;28.80;22.70;;;;;;5063356;28;46345;-64
2022/07/29 06:48:00;;;;;;;3.63;1.80;;;28.10;24.80;;;;;;5061653;28;46610;-64
2022/07/29 06:50:26;;;;;;;6.10;1.80;;;27.60;26.70;;;;;;5070462;28;46000;-66
2022/07/29 06:52:51;;;;;;;4.83;1.90;;;27.40;27.20;;;;;;5070246;28;47123;-65
2022/07/29 06:55:19;;;;;;;4.07;1.70;;;27.20;28.30;;;;;;5062199;28;46363;-65
2022/07/29 06:57:45;;;;;;;2.83;1.50;;;27.10;28.50;;;;;;5062589;28;46402;-64
2022/07/29 07:00:11;;;;;;;8.40;1.87;;;27.00;28.10;;;;;;5063924;28;47129;-65
2022/07/29 07:02:37;;;;;;;3.40;1.77;;;26.80;27.90;;;;;;5061891;28;48065;-65
2022/07/29 07:05:03;;;;;;;4.37;2.20;;;27.00;27.30;;;;;;5063402;28;46533;-66
2022/07/29 07:07:28;;;;;;;4.57;2.13;;;27.00;27.00;;;;;;5061041;28;46361;-65
2022/07/29 07:09:54;;;;;;;5.97;2.07;;;27.10;26.70;;;;;;5068794;28;46428;-65
2022/07/29 07:12:20;;;;;;;6.13;1.70;;;27.00;26.30;;;;;;5068021;28;46472;-66
2022/07/29 07:14:45;;;;;;;3.37;1.97;;;26.90;26.10;;;;;;5074942;28;45822;-66
2022/07/29 07:17:11;;;;;;;3.53;1.97;;;26.60;26.10;;;;;;5070678;28;45837;-65
2022/07/29 07:19:36;;;;;;;3.90;2.13;;;26.60;25.40;;;;;;5064444;28;46374;-65
2022/07/29 07:22:02;;;;;;;5.57;2.33;;;26.70;25.10;;;;;;5060699;28;47386;-66
2022/07/29 07:24:27;;;;;;;8.60;2.13;;;26.80;24.70;;;;;;5061442;28;46612;-65
2022/07/29 07:26:53;;;;;;;3.50;2.43;;;27.00;24.70;;;;;;5060941;28;46416;-65
2022/07/29 07:29:19;;;;;;;5.53;2.03;;;27.00;24.70;;;;;;5061366;28;46393;-64
2022/07/29 07:31:45;;;;;;;4.10;1.97;;;27.20;23.40;;;;;;5060474;28;47095;-64
2022/07/29 07:34:10;;;;;;;4.87;1.87;;;27.20;24.40;;;;;;5060683;28;46463;-65
2022/07/29 07:36:36;;;;;;;8.40;1.93;;;27.30;24.40;;;;;;5062036;28;46424;-63
2022/07/29 07:39:03;;;;;;;4.50;2.00;;;27.30;24.30;;;;;;5061992;28;46432;-66
2022/07/29 07:41:28;;;;;;;5.13;1.90;;;26.90;23.00;;;;;;5061481;28;46475;-66
2022/07/29 07:43:54;;;;;;;6.93;2.00;;;26.90;23.90;;;;;;5064930;28;47025;-65
2022/07/29 07:46:19;;;;;;;7.17;2.10;;;26.90;24.70;;;;;;5062677;28;45940;-65
2022/07/29 07:48:45;;;;;;;2.87;1.93;;;26.90;24.10;;;;;;5061720;28;45877;-65
2022/07/29 07:51:11;;;;;;;4.40;2.17;;;26.80;24.20;;;;;;5064293;28;46090;-65
2022/07/29 07:53:37;;;;;;;3.70;2.07;;;26.80;24.10;;;;;;5060540;28;46445;-65
2022/07/29 07:56:04;;;;;;;3.67;2.00;;;26.90;23.90;;;;;;5060501;28;46385;-65
2022/07/29 07:58:30;;;;;;;3.67;1.90;;;26.90;23.80;;;;;;5059140;28;46396;-65
2022/07/29 08:00:55;;;;;;;5.90;2.47;;;26.90;23.90;;;;;;5061064;28;46440;-65
2022/07/29 08:03:21;;;;;;;4.87;2.67;;;26.70;24.10;;;;;;5059085;28;46442;-65
2022/07/29 08:05:47;;;;;;;6.00;1.93;;;26.50;24.40;;;;;;5060956;28;46488;-65
2022/07/29 08:08:13;;;;;;;4.00;2.10;;;26.40;24.50;;;;;;5059733;28;46369;-65
2022/07/29 08:10:58;;;;;;;7.83;2.40;;;26.30;24.80;;;;;;5061565;28;47958;-65
2022/07/29 08:13:27;;;;;;;7.10;2.30;;;26.30;24.90;;;;;;5060538;28;46345;-66
2022/07/29 08:16:01;;;;;;;8.53;2.60;;;26.10;25.00;;;;;;5061343;28;46381;-66
2022/07/29 08:18:31;;;;;;;3.83;2.23;;;26.00;25.20;;;;;;5059552;28;46476;-65
2022/07/29 08:20:57;;;;;;;3.57;2.00;;;26.10;25.40;;;;;;5061931;28;46085;-66
2022/07/29 08:23:23;;;;;;;4.20;2.33;;;26.20;25.40;;;;;;5058519;28;46441;-66
2022/07/29 08:25:49;;;;;;;3.53;2.07;;;26.30;25.50;;;;;;5060455;28;46443;-66
2022/07/29 08:28:15;;;;;;;4.73;2.43;;;26.30;25.40;;;;;;5056010;28;46488;-65
2022/07/29 08:30:41;;;;;;;5.63;2.17;;;26.40;25.40;;;;;;5060311;28;46201;-65
2022/07/29 08:33:07;;;;;;;3.90;2.30;;;26.30;25.80;;;;;;5058289;28;46501;-68
2022/07/29 08:35:32;;;;;;;7.70;2.77;;;26.10;26.20;;;;;;5061569;28;46412;-67
2022/07/29 08:37:58;;;;;;;13.97;3.50;;;26.20;26.00;;;;;;5060343;28;46609;-65
2022/07/29 08:40:24;;;;;;;7.70;4.10;;;26.20;26.00;;;;;;5057966;28;48195;-68
2022/07/29 08:42:50;;;;;;;12.53;4.20;;;26.30;26.00;;;;;;5059732;28;46373;-64
2022/07/29 08:45:16;;;;;;;6.67;3.27;;;26.60;25.70;;;;;;5059571;28;46393;-65
2022/07/29 08:47:45;;;;;;;9.90;3.40;;;26.70;26.40;;;;;;5059333;28;46419;-65
2022/07/29 08:50:11;;;;;;;9.93;3.40;;;27.00;24.90;;;;;;5055808;28;48204;-66
2022/07/29 08:52:39;;;;;;;9.07;3.67;;;27.40;24.20;;;;;;5056869;28;46354;-67
2022/07/29 08:55:07;;;;;;;5.87;3.10;;;27.70;23.80;;;;;;5061474;28;46432;-66
2022/07/29 08:57:34;;;;;;;7.40;2.63;;;27.90;23.40;;;;;;5060425;28;46571;-65
2022/07/29 09:00:01;;;;;;;6.63;3.80;;;28.00;23.50;;;;;;5062158;28;46489;-66
2022/07/29 09:02:32;;;;;;;6.97;2.60;;;27.90;23.30;;;;;;5059422;28;46413;-68
2022/07/29 09:05:01;;;;;;;4.97;2.93;;;28.10;23.00;;;;;;5057689;28;46524;-66
2022/07/29 09:07:26;;;;;;;8.40;2.30;;;28.30;22.60;;;;;;5059558;28;46316;-64
2022/07/29 09:09:52;;;;;;;4.77;2.10;;;28.30;22.70;;;;;;5058964;28;47955;-64
2022/07/29 09:12:18;;;;;;;4.10;2.13;;;28.20;23.10;;;;;;5056676;28;46489;-64
2022/07/29 09:14:44;;;;;;;4.53;2.23;;;28.10;23.30;;;;;;5056472;28;46116;-65
2022/07/29 09:17:10;;;;;;;7.10;2.40;;;28.30;23.10;;;;;;5058776;28;45945;-66
2022/07/29 09:19:37;;;;;;;4.70;2.40;;;28.40;23.00;;;;;;5062404;28;48121;-65
2022/07/29 09:22:06;;;;;;;4.50;2.80;;;28.70;23.00;;;;;;5057728;28;46403;-66
2022/07/29 09:24:39;;;;;;;6.47;2.50;;;28.40;22.90;;;;;;5056634;28;46408;-67
2022/07/29 09:27:22;;;;;;;3.60;2.00;;;28.30;23.20;;;;;;5056989;28;46521;-69
2022/07/29 09:30:04;;;;;;;6.60;2.57;;;28.20;23.50;;;;;;5069129;28;46515;-69
2022/07/29 09:32:30;;;;;;;5.70;2.70;;;28.00;23.80;;;;;;5063660;28;46291;-69
2022/07/29 09:35:22;;;;;;;4.00;2.60;;;27.90;23.90;;;;;;5059531;28;46622;-69
2022/07/29 09:37:48;;;;;;;4.00;2.60;;;27.90;24.10;;;;;;5061177;28;46486;-65
2022/07/29 09:40:17;;;;;;;6.90;2.90;;;28.00;24.20;;;;;;5062297;28;46485;-66
2022/07/29 09:42:43;;;;;;;8.13;2.60;;;28.20;24.00;;;;;;5061375;28;45980;-66
2022/07/29 09:45:09;;;;;;;8.63;3.03;;;28.00;24.20;;;;;;5062041;28;46456;-66
2022/07/29 09:47:48;;;;;;;5.93;2.40;;;28.00;24.30;;;;;;5062112;28;46475;-67
2022/07/29 09:50:15;;;;;;;9.13;2.60;;;28.00;23.80;;;;;;5060599;28;46544;-66
2022/07/29 09:52:49;;;;;;;5.00;2.57;;;28.00;24.00;;;;;;5061658;28;46504;-65
2022/07/29 09:55:15;;;;;;;4.67;2.40;;;27.80;24.40;;;;;;5062872;28;46627;-68
2022/07/29 09:57:41;;;;;;;3.90;3.07;;;27.60;24.70;;;;;;5062442;28;46405;-67
2022/07/29 10:00:09;;;;;;;4.63;2.80;;;27.40;25.10;;;;;;5062343;28;46514;-65
2022/07/29 10:02:37;;;;;;;5.40;2.30;;;27.20;25.70;;;;;;5063441;28;46475;-66
2022/07/29 10:05:06;;;;;;;6.80;3.00;;;27.30;25.60;;;;;;5062000;28;46377;-66
2022/07/29 10:07:46;;;;;;;8.23;2.10;;;27.30;25.30;;;;;;5061005;28;45843;-64
2022/07/29 10:10:19;;;;;;;4.80;2.70;;;27.50;25.40;;;;;;5062448;28;46110;-65
2022/07/29 10:12:53;;;;;;;4.10;2.53;;;27.40;24.90;;;;;;5058246;28;46444;-66
2022/07/29 10:15:20;;;;;;;3.77;2.50;;;27.40;25.20;;;;;;5062829;28;46497;-66
2022/07/29 10:17:47;;;;;;;4.80;2.33;;;27.60;25.10;;;;;;5061107;28;46732;-66
2022/07/29 10:20:14;;;;;;;5.43;2.60;;;27.90;24.20;;;;;;5062103;28;46369;-66
2022/07/29 10:22:41;;;;;;;4.13;2.50;;;28.00;23.70;;;;;;5060958;28;46492;-65
2022/07/29 10:25:09;;;;;;;4.17;2.40;;;27.80;23.70;;;;;;5065493;28;46354;-67
2022/07/29 10:27:35;;;;;;;5.23;2.47;;;27.60;23.70;;;;;;5058731;28;46420;-66
2022/07/29 10:30:01;;;;;;;6.80;2.70;;;27.70;23.90;;;;;;5051399;28;46412;-67
2022/07/29 10:32:48;;;;;;;6.83;3.00;;;27.90;23.50;;;;;;5059742;28;46510;-67
2022/07/29 10:35:35;;;;;;;9.43;2.67;;;27.90;23.00;;;;;;5059079;28;45857;-67
2022/07/29 10:38:38;;;;;;;7.70;2.20;;;28.00;23.60;;;;;;5061441;28;46456;-67
2022/07/29 10:41:42;;;;;;;5.53;2.27;;;28.60;22.50;;;;;;5058831;28;46516;-67
2022/07/29 10:44:22;;;;;;;4.70;2.90;;;28.50;21.90;;;;;;5057028;28;46500;-68
2022/07/29 10:46:48;;;;;;;8.67;2.67;;;28.90;21.40;;;;;;5058676;28;46647;-67
2022/07/29 10:49:20;;;;;;;4.67;2.27;;;28.70;21.50;;;;;;5060397;28;46263;-68
2022/07/29 10:52:09;;;;;;;8.93;2.57;;;28.40;21.50;;;;;;5060809;28;46766;-66
2022/07/29 10:54:45;;;;;;;11.20;2.67;;;28.40;22.20;;;;;;5060827;28;46486;-66
2022/07/29 10:57:17;;;;;;;9.13;2.43;;;28.30;22.10;;;;;;5059134;28;46493;-66
2022/07/29 10:59:45;;;;;;;7.50;2.83;;;28.20;22.30;;;;;;5063899;28;46539;-65
2022/07/29 11:02:32;;;;;;;3.90;2.20;;;28.00;22.40;;;;;;5056112;28;46374;-65
2022/07/29 11:04:57;;;;;;;5.43;2.77;;;27.80;22.40;;;;;;5059980;28;46314;-66
2022/07/29 11:07:24;;;;;;;4.60;2.40;;;27.60;21.90;;;;;;5060693;28;46687;-65
2022/07/29 11:10:15;;;;;;;5.27;2.30;;;27.40;22.30;;;;;;5061609;28;46390;-65
2022/07/29 11:12:40;;;;;;;3.70;2.20;;;27.30;22.40;;;;;;5060129;28;46990;-66
2022/07/29 11:15:26;;;;;;;9.70;2.70;;;27.20;22.40;;;;;;5057535;28;46530;-67
2022/07/29 11:17:56;;;;;;;5.37;2.90;;;27.00;22.90;;;;;;5061796;28;46594;-67
2022/07/29 11:20:40;;;;;;;4.63;2.33;;;26.80;23.40;;;;;;5059202;28;46416;-66
2022/07/29 11:23:28;;;;;;;5.10;2.73;;;27.00;23.30;;;;;;5060727;28;46465;-67
2022/07/29 11:26:25;;;;;;;6.93;2.53;;;27.30;22.60;;;;;;5058802;28;46763;-67
2022/07/29 11:28:59;;;;;;;8.10;2.50;;;27.50;22.00;;;;;;5060645;28;46378;-66
2022/07/29 11:31:41;;;;;;;5.00;2.50;;;27.70;21.80;;;;;;5063173;28;46233;-66
2022/07/29 11:34:31;;;;;;;5.20;2.40;;;27.90;21.50;;;;;;5062824;28;47296;-67
2022/07/29 11:37:06;;;;;;;4.93;2.57;;;28.00;21.30;;;;;;5060379;28;46447;-66
2022/07/29 11:39:33;;;;;;;7.73;2.50;;;28.20;21.20;;;;;;5060103;28;45901;-66
2022/07/29 11:42:20;;;;;;;7.50;2.33;;;28.00;21.30;;;;;;5060752;28;46473;-66
2022/07/29 11:44:56;;;;;;;5.00;3.00;;;28.10;21.10;;;;;;5060814;28;46536;-66
2022/07/29 11:47:22;;;;;;;12.83;3.80;;;28.50;20.40;;;;;;5059365;28;45879;-67
2022/07/29 11:49:48;;;;;;;3.30;2.13;;;28.50;20.50;;;;;;5059888;28;46471;-66
2022/07/29 11:52:14;;;;;;;4.00;2.50;;;28.40;20.70;;;;;;5060615;28;46260;-66
2022/07/29 11:54:42;;;;;;;3.60;2.23;;;28.40;20.50;;;;;;5058736;28;46473;-66
2022/07/29 11:57:08;;;;;;;5.87;2.33;;;28.60;20.10;;;;;;5059514;28;46445;-66
2022/07/29 11:59:44;;;;;;;5.93;2.57;;;28.60;19.90;;;;;;5060252;28;46376;-67
2022/07/29 12:02:10;;;;;;;9.10;2.43;;;28.80;19.30;;;;;;5059657;28;46725;-66
2022/07/29 12:04:56;;;;;;;3.83;2.30;;;29.10;18.80;;;;;;5060602;28;46392;-66
2022/07/29 12:07:29;;;;;;;5.33;2.37;;;29.10;18.30;;;;;;5056735;28;46390;-66
2022/07/29 12:09:55;;;;;;;6.73;2.40;;;29.50;17.30;;;;;;5060025;28;46747;-66
2022/07/29 12:12:22;;;;;;;6.27;2.70;;;29.70;17.20;;;;;;5060289;28;46459;-66
2022/07/29 12:14:48;;;;;;;5.50;2.50;;;29.70;16.20;;;;;;5060924;28;46964;-66
2022/07/29 12:17:27;;;;;;;4.57;2.70;;;29.70;16.00;;;;;;5059437;28;46382;-66
2022/07/29 12:19:54;;;;;;;5.57;2.90;;;29.60;15.80;;;;;;5061001;28;46358;-66
2022/07/29 12:22:31;;;;;;;3.53;2.37;;;29.60;16.10;;;;;;5059070;28;46430;-66
2022/07/29 12:25:02;;;;;;;4.27;2.80;;;29.50;16.10;;;;;;5058443;28;48469;-66
2022/07/29 12:27:28;;;;;;;3.83;2.73;;;29.20;16.40;;;;;;5058104;28;46481;-66
2022/07/29 12:30:02;;;;;;;5.70;2.80;;;29.20;16.70;;;;;;5060369;28;45867;-66
2022/07/29 12:32:36;;;;;;;6.43;2.80;;;29.20;16.50;;;;;;5059970;28;46476;-66
2022/07/29 12:35:11;;;;;;;7.90;2.73;;;29.10;17.00;;;;;;5056482;28;46307;-65
2022/07/29 12:37:39;;;;;;;4.43;3.03;;;28.80;16.90;;;;;;5060144;28;46360;-67
2022/07/29 12:40:06;;;;;;;6.13;2.60;;;28.90;17.00;;;;;;5060562;28;46356;-67
2022/07/29 12:42:32;;;;;;;4.87;2.60;;;29.10;16.20;;;;;;5060159;28;46476;-67
2022/07/29 12:44:58;;;;;;;8.20;3.07;;;29.10;17.10;;;;;;5059882;28;46552;-68
2022/07/29 12:47:24;;;;;;;3.60;2.50;;;29.20;17.10;;;;;;5058707;28;45843;-66
2022/07/29 12:49:51;;;;;;;4.60;2.70;;;29.10;17.10;;;;;;5060442;28;46440;-66
2022/07/29 12:52:33;;;;;;;6.37;2.53;;;28.70;16.40;;;;;;5059023;28;46434;-67
2022/07/29 12:55:00;;;;;;;8.83;2.47;;;28.60;17.70;;;;;;5056966;28;47966;-66
2022/07/29 12:57:26;;;;;;;3.97;2.63;;;28.00;18.50;;;;;;5058121;28;46732;-68
2022/07/29 13:00:05;;;;;;;6.87;2.60;;;27.70;19.40;;;;;;5056440;28;46422;-68
2022/07/29 13:02:31;;;;;;;6.50;3.10;;;27.30;19.30;;;;;;5057511;28;46507;-67